Time;durP1;ratioP1;P1;durP2;ratioP2;P2;SDS_P1;SDS_P2;PMS_P1;PMS_P2;Temp;Humidity;BMP_temperature;BMP_pressure;BME280_temperature;BME280_humidity;BME280_pressure;Samples;Min_cycle;Max_cycle;Signal;HPM_P1;HPM_P2
2022/07/07 00:02:45;;;;;;;9.32;7.40;;;13.20;99.90;;;;;;10136284;29;20070;-83
2022/07/07 00:07:45;;;;;;;11.95;7.35;;;13.20;99.90;;;;;;10136647;29;20036;-84
2022/07/07 00:12:46;;;;;;;9.75;7.03;;;13.10;99.90;;;;;;10131912;29;20481;-83
2022/07/07 00:17:47;;;;;;;9.00;6.40;;;13.00;99.90;;;;;;10142141;29;20398;-83
2022/07/07 00:22:47;;;;;;;8.50;6.18;;;12.90;99.90;;;;;;10109123;29;20037;-84
2022/07/07 00:27:48;;;;;;;9.88;7.18;;;12.80;99.90;;;;;;10136941;29;20493;-83
2022/07/07 00:32:48;;;;;;;8.63;5.80;;;12.70;99.90;;;;;;10135917;29;20028;-83
2022/07/07 00:37:49;;;;;;;9.55;5.80;;;12.80;99.90;;;;;;10144670;29;20055;-83
2022/07/07 00:42:49;;;;;;;7.70;5.40;;;12.80;99.90;;;;;;10115971;29;20515;-83
2022/07/07 00:47:50;;;;;;;8.80;5.60;;;12.80;99.90;;;;;;10136444;29;20051;-83
2022/07/07 00:52:51;;;;;;;9.00;5.40;;;12.90;99.90;;;;;;10147144;29;20052;-83
2022/07/07 00:57:52;;;;;;;8.43;6.25;;;13.00;99.90;;;;;;10135674;29;20481;-84
2022/07/07 01:02:53;;;;;;;7.82;6.50;;;13.10;99.90;;;;;;10122899;29;20052;-83
2022/07/07 01:07:54;;;;;;;10.73;7.05;;;13.10;99.90;;;;;;10120053;29;20036;-83
2022/07/07 01:12:55;;;;;;;10.57;8.02;;;13.00;99.90;;;;;;10148412;29;20127;-84
2022/07/07 01:17:56;;;;;;;15.70;9.35;;;13.10;99.90;;;;;;10133386;29;20368;-85
2022/07/07 01:22:57;;;;;;;14.63;8.80;;;13.00;99.90;;;;;;10131874;29;20036;-85
2022/07/07 01:27:57;;;;;;;15.07;9.52;;;12.90;99.90;;;;;;10131784;29;20091;-85
2022/07/07 01:32:58;;;;;;;16.55;10.52;;;12.90;99.90;;;;;;10132155;29;20394;-85
2022/07/07 01:37:58;;;;;;;16.42;9.98;;;12.80;99.90;;;;;;10151438;29;20588;-86
2022/07/07 01:42:59;;;;;;;13.75;9.15;;;12.70;99.90;;;;;;10131054;29;20058;-87
2022/07/07 01:47:59;;;;;;;16.65;10.52;;;12.70;99.90;;;;;;10138149;29;20036;-84
2022/07/07 01:53:00;;;;;;;15.80;9.02;;;12.70;99.90;;;;;;10139695;29;20083;-86
2022/07/07 01:58:00;;;;;;;18.73;10.32;;;12.70;99.90;;;;;;10139182;29;20088;-83
2022/07/07 02:03:01;;;;;;;15.23;9.77;;;12.60;99.90;;;;;;10118718;29;20072;-83
2022/07/07 02:08:01;;;;;;;16.20;10.40;;;12.50;99.90;;;;;;10112316;29;20062;-84
2022/07/07 02:13:02;;;;;;;18.13;10.85;;;12.50;99.90;;;;;;10122584;29;20080;-84
2022/07/07 02:18:03;;;;;;;18.20;10.75;;;12.40;99.90;;;;;;10129873;29;20033;-83
2022/07/07 02:23:03;;;;;;;13.93;9.82;;;12.50;99.90;;;;;;10127597;29;20532;-84
2022/07/07 02:28:04;;;;;;;13.68;9.38;;;12.50;99.90;;;;;;10142450;29;20060;-83
2022/07/07 02:33:06;;;;;;;10.95;7.85;;;12.60;99.90;;;;;;10142529;29;20074;-83
2022/07/07 02:38:07;;;;;;;15.43;8.90;;;12.70;99.90;;;;;;10118301;29;20040;-83
2022/07/07 02:43:12;;;;;;;17.50;9.85;;;12.70;99.90;;;;;;10153469;29;20051;-84
2022/07/07 02:48:15;;;;;;;14.05;9.68;;;12.80;99.90;;;;;;10135069;29;20036;-87
2022/07/07 02:53:16;;;;;;;14.68;9.65;;;12.80;99.90;;;;;;10131595;29;20079;-85
2022/07/07 02:58:20;;;;;;;13.48;9.13;;;13.00;99.90;;;;;;10146034;29;20035;-84
2022/07/07 03:03:21;;;;;;;15.45;10.05;;;13.10;99.90;;;;;;10111948;29;20065;-86
2022/07/07 03:08:22;;;;;;;13.10;9.07;;;13.10;99.90;;;;;;10129187;29;20024;-86
2022/07/07 03:13:23;;;;;;;15.20;9.63;;;13.10;99.90;;;;;;10107571;29;20032;-85
2022/07/07 03:18:23;;;;;;;13.25;9.48;;;13.20;99.90;;;;;;10123050;29;20032;-84
2022/07/07 03:23:24;;;;;;;11.85;8.68;;;13.30;99.90;;;;;;10108656;29;20044;-84
2022/07/07 03:28:25;;;;;;;14.73;8.95;;;13.30;99.90;;;;;;10134451;29;20111;-85
2022/07/07 03:33:27;;;;;;;12.85;8.77;;;13.50;99.90;;;;;;10126966;29;20060;-83
2022/07/07 03:38:27;;;;;;;11.15;7.93;;;13.50;99.90;;;;;;10125471;29;20044;-84
2022/07/07 03:43:28;;;;;;;15.50;9.23;;;13.50;99.90;;;;;;10130489;29;20469;-86
2022/07/07 03:48:32;;;;;;;17.30;10.40;;;13.50;99.90;;;;;;10108572;29;20054;-85
2022/07/07 03:53:32;;;;;;;14.07;10.60;;;13.40;99.90;;;;;;10105710;29;20135;-83
2022/07/07 03:58:33;;;;;;;13.07;8.95;;;13.40;99.90;;;;;;10134539;29;20036;-83
2022/07/07 04:03:34;;;;;;;14.07;10.00;;;13.50;99.90;;;;;;10130928;29;20048;-82
2022/07/07 04:08:34;;;;;;;15.98;9.90;;;13.50;99.90;;;;;;10118827;29;20047;-82
2022/07/07 04:13:35;;;;;;;16.00;11.00;;;13.60;99.90;;;;;;10133245;29;20108;-82
2022/07/07 04:18:35;;;;;;;15.13;11.73;;;13.70;99.90;;;;;;10135549;29;20036;-83
2022/07/07 04:23:42;;;;;;;20.70;13.80;;;13.90;99.90;;;;;;10105960;29;20036;-83
2022/07/07 04:28:43;;;;;;;23.77;16.17;;;14.00;99.90;;;;;;10106368;29;20033;-83
2022/07/07 04:33:44;;;;;;;24.85;17.02;;;14.00;99.90;;;;;;10105213;29;20029;-84
2022/07/07 04:38:44;;;;;;;23.52;17.23;;;14.20;99.90;;;;;;10106271;29;20089;-83
2022/07/07 04:43:45;;;;;;;20.75;14.25;;;14.40;99.90;;;;;;10141658;29;20043;-84
2022/07/07 04:49:51;;;;;;;16.73;12.93;;;14.60;99.90;;;;;;10125294;29;20401;-86
2022/07/07 04:54:52;;;;;;;19.60;14.37;;;14.90;99.90;;;;;;10079637;29;20041;-83
2022/07/07 04:59:52;;;;;;;20.58;15.27;;;15.10;99.90;;;;;;10131549;23;20067;-84
2022/07/07 05:04:53;;;;;;;17.13;12.90;;;15.20;99.90;;;;;;10157010;29;20097;-84
2022/07/07 05:10:15;;;;;;;17.60;13.30;;;15.40;99.90;;;;;;10162832;29;20036;-84
2022/07/07 05:15:16;;;;;;;15.38;12.32;;;15.70;99.90;;;;;;10141195;29;20033;-83
2022/07/07 05:20:16;;;;;;;15.80;12.02;;;15.80;99.90;;;;;;10157914;29;20369;-83
2022/07/07 05:25:17;;;;;;;16.33;9.85;;;15.80;99.90;;;;;;10136938;29;20041;-83
2022/07/07 05:30:19;;;;;;;14.63;9.98;;;15.80;99.90;;;;;;10139378;29;20029;-84
2022/07/07 05:35:20;;;;;;;11.82;8.43;;;15.80;99.90;;;;;;10150547;29;20029;-84
2022/07/07 05:40:21;;;;;;;13.35;8.15;;;15.90;99.90;;;;;;10151475;29;20032;-86
2022/07/07 05:45:22;;;;;;;13.52;8.90;;;15.90;99.90;;;;;;10160529;29;20028;-86
2022/07/07 05:50:23;;;;;;;14.65;9.20;;;16.10;99.90;;;;;;10125543;29;20032;-87
2022/07/07 05:55:23;;;;;;;10.68;7.63;;;16.30;99.90;;;;;;10158116;29;20036;-84
2022/07/07 06:00:25;;;;;;;14.07;7.55;;;16.50;99.90;;;;;;10160733;29;20054;-84
2022/07/07 06:05:26;;;;;;;13.48;7.47;;;16.80;99.90;;;;;;10136747;29;20039;-85
2022/07/07 06:10:26;;;;;;;10.57;6.57;;;17.10;99.90;;;;;;10140160;29;20035;-86
2022/07/07 06:15:30;;;;;;;11.57;3.95;;;17.30;99.90;;;;;;10164504;29;20028;-83
2022/07/07 06:20:31;;;;;;;11.07;5.07;;;17.50;99.90;;;;;;10159004;29;20028;-87
2022/07/07 06:25:32;;;;;;;7.43;5.13;;;17.60;99.90;;;;;;10160099;29;20058;-87
2022/07/07 06:30:33;;;;;;;7.95;3.92;;;17.80;99.90;;;;;;10164407;29;20135;-84
2022/07/07 06:35:33;;;;;;;8.18;3.90;;;17.90;99.90;;;;;;10177366;23;20515;-84
2022/07/07 06:40:34;;;;;;;5.43;3.38;;;18.10;99.90;;;;;;10110215;29;20529;-87
2022/07/07 06:45:35;;;;;;;7.25;3.60;;;18.10;99.90;;;;;;10126675;29;20037;-84
2022/07/07 06:50:35;;;;;;;7.47;3.95;;;18.20;99.90;;;;;;10127228;29;20426;-84
2022/07/07 06:55:36;;;;;;;6.07;3.35;;;18.50;99.90;;;;;;10124728;29;20032;-83
2022/07/07 07:00:36;;;;;;;5.30;3.55;;;19.50;99.90;;;;;;10126334;29;20028;-82
2022/07/07 07:05:37;;;;;;;6.47;3.25;;;20.90;98.60;;;;;;10109517;29;20080;-86
2022/07/07 07:10:37;;;;;;;4.63;2.80;;;21.20;94.80;;;;;;10123163;29;20115;-86
2022/07/07 07:15:39;;;;;;;5.70;2.88;;;21.70;92.60;;;;;;10123900;29;20039;-83
2022/07/07 07:20:40;;;;;;;7.13;2.50;;;22.50;89.10;;;;;;10125129;29;20517;-86
2022/07/07 07:25:40;;;;;;;4.15;1.80;;;22.40;84.60;;;;;;10122309;29;20032;-85
2022/07/07 07:30:41;;;;;;;3.25;2.35;;;22.70;83.00;;;;;;10122834;29;20161;-83
2022/07/07 07:35:42;;;;;;;5.55;2.70;;;23.60;79.60;;;;;;10120628;29;20412;-84
2022/07/07 07:40:42;;;;;;;3.95;2.00;;;23.80;79.90;;;;;;10123047;29;20020;-86
2022/07/07 07:45:44;;;;;;;4.75;2.25;;;23.60;76.50;;;;;;10125979;29;20461;-83
2022/07/07 07:50:45;;;;;;;4.85;3.00;;;23.70;76.10;;;;;;10125051;29;20088;-85
2022/07/07 07:55:46;;;;;;;6.78;3.58;;;23.90;74.00;;;;;;10120271;29;20029;-86
2022/07/07 08:00:46;;;;;;;8.20;4.30;;;23.60;75.00;;;;;;10124569;29;20025;-86
2022/07/07 08:05:47;;;;;;;7.93;5.60;;;23.00;76.20;;;;;;10124450;29;20024;-84
2022/07/07 08:10:48;;;;;;;9.13;5.55;;;22.60;76.20;;;;;;10124718;29;20391;-84
2022/07/07 08:15:49;;;;;;;7.35;5.00;;;22.70;78.50;;;;;;10123722;29;20028;-85
2022/07/07 08:20:49;;;;;;;9.55;6.43;;;22.90;78.10;;;;;;10123497;29;20044;-84
2022/07/07 08:25:50;;;;;;;9.75;5.45;;;23.10;74.20;;;;;;10106014;29;20493;-83
2022/07/07 08:30:50;;;;;;;12.07;6.47;;;23.40;77.60;;;;;;10107083;29;20036;-85
2022/07/07 08:35:51;;;;;;;12.88;6.18;;;23.30;77.80;;;;;;10123828;29;20084;-83
2022/07/07 08:40:54;;;;;;;8.10;6.22;;;23.10;78.90;;;;;;10121464;29;20127;-86
2022/07/07 08:45:54;;;;;;;9.25;5.72;;;23.20;77.70;;;;;;10106940;29;20040;-85
2022/07/07 08:50:55;;;;;;;9.82;6.82;;;23.80;79.50;;;;;;10122068;29;20465;-83
2022/07/07 08:55:56;;;;;;;7.32;4.55;;;24.20;77.00;;;;;;10124089;29;20027;-86
2022/07/07 09:00:57;;;;;;;10.93;4.85;;;24.20;73.50;;;;;;10123828;29;20040;-86
2022/07/07 09:05:59;;;;;;;6.85;3.22;;;24.00;72.80;;;;;;10121886;29;20122;-86
2022/07/07 09:11:00;;;;;;;3.13;2.05;;;23.40;74.20;;;;;;10131018;29;20611;-83
2022/07/07 09:16:12;;;;;;;6.68;2.15;;;23.80;71.10;;;;;;10119218;29;20043;-82
2022/07/07 09:21:32;;;;;;;5.30;2.20;;;23.70;73.20;;;;;;10121475;29;20041;-84
2022/07/07 09:26:47;;;;;;;4.82;2.25;;;24.00;71.40;;;;;;10126581;29;20469;-83
2022/07/07 09:32:04;;;;;;;5.57;2.20;;;24.40;67.40;;;;;;10129976;29;20059;-83
2022/07/07 09:42:33;;;;;;;5.05;2.17;;;24.50;67.40;;;;;;10130972;29;20056;-88
2022/07/07 09:47:34;;;;;;;2.72;2.00;;;24.90;68.30;;;;;;10128724;29;20053;-86
2022/07/07 09:52:38;;;;;;;3.58;2.20;;;25.40;66.80;;;;;;10112499;29;20124;-83
2022/07/07 09:57:40;;;;;;;5.40;2.47;;;25.00;65.60;;;;;;10127080;29;20024;-85
2022/07/07 10:02:42;;;;;;;4.57;2.58;;;24.30;67.60;;;;;;10129740;29;20036;-84
2022/07/07 10:07:48;;;;;;;7.30;3.03;;;24.10;68.30;;;;;;10129741;29;20016;-83
2022/07/07 10:12:52;;;;;;;;;;;23.70;67.60;;;;;;10111315;29;20033;-86
2022/07/07 10:17:53;;;;;;;5.20;2.88;;;23.90;68.60;;;;;;10119014;29;19912;-83
2022/07/07 10:22:54;;;;;;;6.63;2.65;;;24.60;69.50;;;;;;10123974;29;20044;-84
2022/07/07 10:27:54;;;;;;;4.00;2.55;;;25.00;65.30;;;;;;10125067;29;20031;-83
2022/07/07 10:32:57;;;;;;;6.97;2.30;;;25.30;65.10;;;;;;10111052;29;20028;-83
2022/07/07 10:37:57;;;;;;;6.95;2.78;;;25.70;65.70;;;;;;10127758;29;20105;-86
2022/07/07 10:43:19;;;;;;;8.43;3.00;;;25.80;63.30;;;;;;10128458;29;20568;-86
2022/07/07 10:48:43;;;;;;;3.47;2.30;;;25.70;65.40;;;;;;10122300;29;20025;-84
2022/07/07 10:54:00;;;;;;;3.17;2.05;;;25.70;69.00;;;;;;10124178;29;20033;-83
2022/07/07 10:59:01;;;;;;;7.60;2.42;;;25.90;66.00;;;;;;10107690;29;20039;-83
2022/07/07 11:04:02;;;;;;;7.78;3.17;;;26.40;65.20;;;;;;10127147;29;20386;-89
2022/07/07 11:09:03;;;;;;;8.43;2.67;;;26.40;63.70;;;;;;10107650;29;20024;-83
2022/07/07 11:14:09;;;;;;;4.00;2.65;;;26.10;64.90;;;;;;10125542;29;20373;-84
2022/07/07 11:19:14;;;;;;;3.97;2.38;;;25.30;64.40;;;;;;10114923;29;20128;-85
2022/07/07 11:24:18;;;;;;;3.47;2.30;;;24.60;66.10;;;;;;10103668;29;20036;-86
2022/07/07 11:29:19;;;;;;;6.47;2.28;;;24.00;68.20;;;;;;10120417;29;20033;-85
2022/07/07 11:34:20;;;;;;;2.25;2.00;;;23.90;70.40;;;;;;10108173;29;20127;-88
2022/07/07 11:39:20;;;;;;;4.68;2.50;;;24.70;69.60;;;;;;10108559;29;20115;-88
2022/07/07 11:44:22;;;;;;;4.75;2.53;;;25.50;67.60;;;;;;10108845;29;20508;-83
2022/07/07 11:49:23;;;;;;;4.55;2.78;;;26.20;68.90;;;;;;10125375;29;20052;-84
2022/07/07 11:54:23;;;;;;;4.82;2.35;;;26.80;63.40;;;;;;10141247;23;20151;-84
2022/07/07 11:59:24;;;;;;;3.65;2.28;;;27.10;63.40;;;;;;10163227;29;20028;-84
2022/07/07 12:04:24;;;;;;;9.68;2.47;;;26.20;63.10;;;;;;10164407;29;20122;-85
2022/07/07 12:09:25;;;;;;;4.60;2.25;;;26.00;63.70;;;;;;10163826;29;20055;-85
2022/07/07 12:14:27;;;;;;;4.13;2.47;;;25.70;63.30;;;;;;10144630;29;20035;-88
2022/07/07 12:19:27;;;;;;;4.50;3.08;;;25.60;68.70;;;;;;10161940;29;20024;-84
2022/07/07 12:24:30;;;;;;;6.13;2.20;;;25.80;68.80;;;;;;10154904;29;20039;-88
2022/07/07 12:29:31;;;;;;;6.03;2.45;;;25.50;64.30;;;;;;10158171;29;20024;-88
2022/07/07 12:34:38;;;;;;;4.53;2.50;;;25.40;65.20;;;;;;10149109;29;20032;-83
2022/07/07 12:39:42;;;;;;;5.93;2.20;;;25.50;66.40;;;;;;10160989;29;20039;-84
2022/07/07 12:44:42;;;;;;;3.97;2.13;;;25.30;67.60;;;;;;10167597;29;20072;-83
2022/07/07 12:49:54;;;;;;;2.45;2.25;;;25.20;66.70;;;;;;10170695;29;20111;-83
2022/07/07 12:55:07;;;;;;;3.65;2.15;;;25.20;66.90;;;;;;10169336;29;20060;-88
2022/07/07 13:00:25;;;;;;;6.28;2.60;;;25.10;67.90;;;;;;10152719;29;20468;-87
2022/07/07 13:05:27;;;;;;;5.78;2.72;;;25.00;66.60;;;;;;10168847;29;20047;-86
2022/07/07 13:10:27;;;;;;;4.25;2.40;;;24.80;67.00;;;;;;10168870;29;20020;-85
2022/07/07 13:15:28;;;;;;;5.68;2.15;;;24.80;67.40;;;;;;10170266;29;20024;-84
2022/07/07 13:20:28;;;;;;;5.05;2.58;;;24.60;66.20;;;;;;10168669;29;20039;-85
2022/07/07 13:25:29;;;;;;;3.67;2.28;;;24.40;66.10;;;;;;10167752;29;20492;-87
2022/07/07 13:30:30;;;;;;;2.58;1.90;;;24.30;69.10;;;;;;10163081;29;20028;-85
2022/07/07 13:35:31;;;;;;;4.20;2.35;;;24.10;70.00;;;;;;10168799;29;20418;-85
2022/07/07 13:40:32;;;;;;;4.88;2.70;;;23.90;69.20;;;;;;10166625;29;20024;-86
2022/07/07 13:45:34;;;;;;;2.63;2.17;;;23.60;71.50;;;;;;10165867;29;20103;-87
2022/07/07 13:50:35;;;;;;;3.35;2.40;;;23.40;70.40;;;;;;10159165;29;20114;-83
2022/07/07 13:55:37;;;;;;;4.68;2.20;;;23.20;70.80;;;;;;10156716;29;20059;-86
2022/07/07 14:00:37;;;;;;;4.63;2.47;;;22.90;70.60;;;;;;10147020;29;20039;-83
2022/07/07 14:05:39;;;;;;;2.88;2.10;;;22.70;71.00;;;;;;10164694;29;20055;-87
2022/07/07 14:10:49;;;;;;;2.30;1.80;;;22.50;71.20;;;;;;10164538;29;20028;-86
2022/07/07 14:15:49;;;;;;;3.00;2.03;;;22.40;74.50;;;;;;10164037;29;20067;-84
2022/07/07 14:20:50;;;;;;;4.90;2.70;;;22.10;74.00;;;;;;10165068;29;20038;-83
2022/07/07 14:31:58;;;;;;;152.50;30.58;;;21.40;74.30;;;;;;10082386;29;20339;-86
2022/07/07 14:36:59;;;;;;;14.15;4.00;;;21.20;75.70;;;;;;10077260;29;20041;-85
2022/07/07 14:42:00;;;;;;;5.82;2.28;;;21.00;75.60;;;;;;10164855;29;20162;-86
2022/07/07 14:47:24;;;;;;;4.65;2.60;;;20.90;76.70;;;;;;10148981;29;20039;-88
2022/07/07 14:58:42;;;;;;;4.95;2.40;;;20.40;80.80;;;;;;10087673;29;20049;-85
2022/07/07 15:57:18;;;;;;;6.07;4.35;;;21.00;82.20;;;;;;10111851;29;20057;-84
2022/07/07 16:02:18;;;;;;;5.38;3.60;;;21.10;82.00;;;;;;10124207;29;20056;-83
2022/07/07 16:07:19;;;;;;;7.00;3.40;;;21.40;80.80;;;;;;10124923;29;20659;-84
2022/07/07 16:12:20;;;;;;;6.57;3.92;;;21.60;83.20;;;;;;10105096;29;20047;-84
2022/07/07 16:17:21;;;;;;;4.72;2.50;;;21.70;82.10;;;;;;10128569;29;20456;-84
2022/07/07 16:22:22;;;;;;;3.28;2.25;;;21.90;81.10;;;;;;10124220;29;20139;-84
2022/07/07 16:27:23;;;;;;;5.15;2.58;;;22.10;80.80;;;;;;10120704;29;20032;-85
2022/07/07 16:32:42;;;;;;;2.60;2.22;;;22.10;76.80;;;;;;10121839;29;20130;-84
2022/07/07 16:37:43;;;;;;;2.40;1.70;;;22.00;80.20;;;;;;10114966;29;20036;-84
2022/07/07 16:43:15;;;;;;;4.07;2.97;;;21.80;80.10;;;;;;10130736;29;20045;-84
2022/07/07 16:48:16;;;;;;;14.93;7.53;;;21.60;79.20;;;;;;10115383;29;20067;-84
2022/07/07 16:54:04;;;;;;;10.77;4.72;;;21.40;85.10;;;;;;10127253;29;20533;-84
2022/07/07 16:59:06;;;;;;;8.63;3.33;;;21.00;86.50;;;;;;10103298;29;20052;-85
2022/07/07 17:04:47;;;;;;;6.55;4.07;;;20.70;85.90;;;;;;10125182;29;20076;-84
2022/07/07 17:09:47;;;;;;;5.18;3.90;;;20.40;89.40;;;;;;10117741;29;20033;-85
2022/07/07 17:14:48;;;;;;;7.18;3.92;;;20.10;88.80;;;;;;10119967;29;20036;-83
2022/07/07 17:20:16;;;;;;;7.25;3.63;;;19.90;90.50;;;;;;10119707;29;20141;-84
2022/07/07 17:25:17;;;;;;;6.57;3.90;;;19.90;90.60;;;;;;10115097;29;20056;-82
2022/07/07 17:30:17;;;;;;;8.25;3.90;;;19.80;91.40;;;;;;10124002;29;20084;-82
2022/07/07 17:35:19;;;;;;;6.55;4.40;;;19.70;92.40;;;;;;10128163;29;20591;-83
2022/07/07 17:40:20;;;;;;;5.82;4.55;;;19.60;94.60;;;;;;10129573;29;20060;-82
2022/07/07 17:45:22;;;;;;;5.57;4.68;;;19.40;97.50;;;;;;10128045;29;20067;-84
2022/07/07 17:50:23;;;;;;;5.00;4.25;;;19.30;99.90;;;;;;10121127;29;20035;-82
2022/07/07 17:55:24;;;;;;;7.65;4.75;;;19.10;99.90;;;;;;10130073;29;20092;-82
2022/07/07 18:00:26;;;;;;;6.72;4.75;;;19.00;99.90;;;;;;10122769;29;20124;-84
2022/07/07 18:05:28;;;;;;;5.70;4.88;;;18.90;99.90;;;;;;10138307;29;20091;-83
2022/07/07 18:10:30;;;;;;;7.78;5.55;;;18.80;99.90;;;;;;10128278;29;20021;-86
2022/07/07 18:15:32;;;;;;;6.50;5.10;;;18.80;99.90;;;;;;10127312;29;20043;-83
2022/07/07 18:20:34;;;;;;;7.93;6.00;;;18.70;99.90;;;;;;10122767;29;20036;-83
2022/07/07 18:25:35;;;;;;;8.80;6.40;;;18.60;99.90;;;;;;10124232;29;20123;-83
2022/07/07 18:30:36;;;;;;;9.65;6.95;;;18.50;99.90;;;;;;10126560;29;20040;-82
2022/07/07 18:35:38;;;;;;;8.63;6.97;;;18.50;99.90;;;;;;10128463;29;20051;-84
2022/07/07 18:40:40;;;;;;;12.63;6.47;;;18.40;99.90;;;;;;10126745;29;20036;-83
2022/07/07 18:45:41;;;;;;;8.43;6.88;;;18.20;99.90;;;;;;10128078;29;20044;-83
2022/07/07 18:50:44;;;;;;;8.15;6.70;;;18.10;99.90;;;;;;10123610;29;20025;-84
2022/07/07 18:55:45;;;;;;;8.90;6.28;;;17.90;99.90;;;;;;10135849;29;20057;-86
2022/07/07 19:00:46;;;;;;;8.02;6.50;;;17.90;99.90;;;;;;10125296;29;20056;-83
2022/07/07 19:05:46;;;;;;;6.70;5.97;;;17.80;99.90;;;;;;10112992;29;20119;-86
2022/07/07 19:10:47;;;;;;;9.52;5.97;;;17.80;99.90;;;;;;10122769;29;20033;-83
2022/07/07 19:15:49;;;;;;;6.82;6.13;;;17.80;99.90;;;;;;10125508;29;20115;-83
2022/07/07 19:21:03;;;;;;;6.93;5.32;;;17.70;99.90;;;;;;10120890;29;20147;-84
2022/07/07 19:26:05;;;;;;;6.80;6.03;;;17.70;99.90;;;;;;10124506;29;20044;-86
2022/07/07 19:31:06;;;;;;;7.55;5.72;;;17.60;99.90;;;;;;10125262;29;20621;-83
2022/07/07 19:36:09;;;;;;;11.20;7.10;;;17.50;99.90;;;;;;10122997;29;20056;-81
2022/07/07 19:41:09;;;;;;;8.48;5.97;;;17.60;99.90;;;;;;10116144;29;20568;-84
2022/07/07 19:46:10;;;;;;;11.88;5.80;;;17.50;99.90;;;;;;10121380;29;20036;-86
2022/07/07 19:51:11;;;;;;;8.07;5.95;;;17.50;99.90;;;;;;10119911;29;20051;-85
2022/07/07 19:56:12;;;;;;;7.35;6.38;;;17.50;99.90;;;;;;10121823;29;20568;-85
2022/07/07 20:01:12;;;;;;;7.43;5.82;;;17.40;99.90;;;;;;10118235;29;20051;-85
2022/07/07 20:06:13;;;;;;;9.43;6.50;;;17.30;99.90;;;;;;10122305;29;20482;-83
2022/07/07 20:11:14;;;;;;;11.52;6.85;;;17.30;99.90;;;;;;10119443;29;20036;-84
2022/07/07 20:16:15;;;;;;;7.93;7.05;;;17.20;99.90;;;;;;10119709;29;20044;-84
2022/07/07 20:21:18;;;;;;;7.75;6.40;;;17.30;99.90;;;;;;10117985;29;20037;-85
2022/07/07 20:26:19;;;;;;;7.50;6.20;;;17.30;99.90;;;;;;10121466;29;20400;-84
2022/07/07 20:31:20;;;;;;;636.42;120.78;;;17.30;99.90;;;;;;10168813;23;20060;-83
2022/07/07 20:47:32;;;;;;;10.77;7.60;;;17.30;99.90;;;;;;10204527;23;20136;-84
2022/07/07 20:52:33;;;;;;;7.60;6.55;;;17.30;99.90;;;;;;10074390;29;20048;-86
2022/07/07 20:57:33;;;;;;;198.25;131.38;;;17.30;99.90;;;;;;10072997;29;20033;-85
2022/07/07 21:02:36;;;;;;;138.93;88.93;;;17.40;99.90;;;;;;10064808;29;20156;-84
2022/07/07 21:07:36;;;;;;;7.88;6.60;;;17.40;99.90;;;;;;10083688;29;20044;-85
2022/07/07 21:12:37;;;;;;;10.38;6.25;;;17.30;99.90;;;;;;10082301;29;20037;-84
2022/07/07 21:17:37;;;;;;;9.20;6.40;;;17.30;99.90;;;;;;10078214;29;20428;-86
2022/07/07 21:22:38;;;;;;;6.57;4.85;;;17.30;99.90;;;;;;10079735;29;20033;-85
2022/07/07 21:27:39;;;;;;;5.35;4.53;;;17.20;99.90;;;;;;10079513;29;20041;-85
2022/07/07 21:32:40;;;;;;;10.23;5.30;;;17.30;99.90;;;;;;10081193;29;20037;-86
2022/07/07 21:37:40;;;;;;;6.30;4.75;;;17.30;99.90;;;;;;10080014;29;20033;-85
2022/07/07 21:42:41;;;;;;;5.95;4.75;;;17.30;99.90;;;;;;10070532;29;20036;-85
2022/07/07 21:47:42;;;;;;;7.80;5.53;;;17.20;99.90;;;;;;10079994;29;20052;-85
2022/07/07 21:52:43;;;;;;;5.93;4.60;;;17.20;99.90;;;;;;10082778;29;20031;-85
2022/07/07 21:57:44;;;;;;;4.65;4.00;;;17.20;99.90;;;;;;10077226;29;20039;-84
2022/07/07 22:02:45;;;;;;;5.22;3.72;;;17.30;99.90;;;;;;10078325;29;20044;-85
2022/07/07 22:07:45;;;;;;;5.45;3.97;;;17.30;99.90;;;;;;10073795;29;20029;-87
2022/07/07 22:12:46;;;;;;;4.07;3.05;;;17.30;99.90;;;;;;10115585;23;20516;-85
2022/07/07 22:17:46;;;;;;;4.38;3.42;;;17.30;99.90;;;;;;10118843;29;20029;-85
2022/07/07 22:22:47;;;;;;;4.88;3.42;;;17.30;99.90;;;;;;10114957;29;20037;-85
2022/07/07 22:27:54;;;;;;;4.32;3.13;;;17.30;99.90;;;;;;10118594;23;20466;-87
2022/07/07 22:32:54;;;;;;;5.45;2.90;;;17.30;99.90;;;;;;10101300;29;20039;-88
2022/07/07 22:37:55;;;;;;;6.55;3.13;;;17.30;99.90;;;;;;10101495;29;20378;-85
2022/07/07 22:42:56;;;;;;;3.40;2.97;;;17.30;99.90;;;;;;10099131;29;20410;-84
2022/07/07 22:47:56;;;;;;;6.15;3.53;;;17.30;99.90;;;;;;10090326;29;20041;-86
2022/07/07 22:52:59;;;;;;;4.57;3.05;;;17.30;99.90;;;;;;10089128;29;20040;-85
2022/07/07 22:58:00;;;;;;;5.43;2.78;;;17.20;99.90;;;;;;10088836;29;20075;-85
2022/07/07 23:03:00;;;;;;;4.28;3.08;;;17.10;99.90;;;;;;10073174;29;20446;-86
2022/07/07 23:08:01;;;;;;;6.85;3.13;;;17.10;99.90;;;;;;10089853;29;20123;-84
2022/07/07 23:13:02;;;;;;;8.10;4.10;;;16.90;99.90;;;;;;10089056;29;20051;-84
2022/07/07 23:18:03;;;;;;;6.53;3.47;;;16.80;99.90;;;;;;10099494;29;20064;-83
2022/07/07 23:23:05;;;;;;;7.13;3.67;;;16.70;99.90;;;;;;10100857;29;20096;-84
2022/07/07 23:28:05;;;;;;;5.63;3.92;;;16.60;99.90;;;;;;10071484;29;20075;-84
2022/07/07 23:33:08;;;;;;;5.10;3.97;;;16.40;99.90;;;;;;10092763;29;20051;-83
2022/07/07 23:38:08;;;;;;;5.28;3.92;;;16.40;99.90;;;;;;10100301;29;20119;-84
2022/07/07 23:43:09;;;;;;;9.52;4.22;;;16.30;99.90;;;;;;10087015;29;20072;-84
2022/07/07 23:48:10;;;;;;;8.77;4.82;;;16.30;99.90;;;;;;10095090;29;20029;-84
2022/07/07 23:53:11;;;;;;;6.03;3.55;;;16.30;99.90;;;;;;10089647;29;20032;-85
2022/07/07 23:58:11;;;;;;;7.55;3.83;;;16.30;99.90;;;;;;10088451;29;20037;-84
